Time;durP1;ratioP1;P1;durP2;ratioP2;P2;SDS_P1;SDS_P2;PMS_P1;PMS_P2;Temp;Humidity;BMP_temperature;BMP_pressure;BME280_temperature;BME280_humidity;BME280_pressure;Samples;Min_cycle;Max_cycle;Signal;HPM_P1;HPM_P2
2024/01/10 00:01:35;;;;;;;9.25;8.35;;;17.20;52.80;;;;;;5075743;28;20211;-69
2024/01/10 00:04:01;;;;;;;9.07;8.15;;;17.20;52.80;;;;;;5099053;28;20208;-69
2024/01/10 00:06:27;;;;;;;9.13;8.20;;;17.20;52.80;;;;;;5101709;28;20191;-68
2024/01/10 00:08:53;;;;;;;8.48;7.57;;;17.20;52.80;;;;;;5075061;28;20192;-69
2024/01/10 00:11:19;;;;;;;8.13;7.32;;;17.30;52.80;;;;;;5090970;28;20185;-69
2024/01/10 00:13:44;;;;;;;8.45;7.50;;;17.20;52.80;;;;;;5090670;28;20216;-69
2024/01/10 00:16:14;;;;;;;8.60;7.72;;;17.20;52.80;;;;;;5092493;28;20212;-69
2024/01/10 00:18:40;;;;;;;8.35;7.55;;;17.30;52.80;;;;;;5091501;28;20195;-69
2024/01/10 00:21:07;;;;;;;8.80;7.68;;;17.20;52.70;;;;;;5082820;28;20181;-68
2024/01/10 00:23:33;;;;;;;9.10;7.97;;;17.20;52.70;;;;;;5090287;28;20227;-68
2024/01/10 00:25:59;;;;;;;8.35;7.55;;;17.20;52.80;;;;;;5074604;28;20189;-69
2024/01/10 00:28:26;;;;;;;9.10;8.25;;;17.30;52.80;;;;;;5091034;28;20184;-68
2024/01/10 00:30:51;;;;;;;8.77;7.88;;;17.20;52.70;;;;;;5070493;28;20234;-69
2024/01/10 00:33:17;;;;;;;8.20;7.03;;;17.20;52.70;;;;;;5090692;28;20188;-69
2024/01/10 00:35:43;;;;;;;9.40;8.27;;;17.20;52.80;;;;;;5092506;28;20250;-69
2024/01/10 00:38:09;;;;;;;8.55;7.75;;;17.30;52.80;;;;;;5091000;28;20189;-69
2024/01/10 00:40:35;;;;;;;9.23;8.30;;;17.20;52.70;;;;;;5107828;28;20682;-69
2024/01/10 00:43:02;;;;;;;8.60;7.80;;;17.20;52.80;;;;;;5099278;28;20570;-69
2024/01/10 00:45:27;;;;;;;8.77;7.50;;;17.20;52.80;;;;;;5088695;28;20284;-69
2024/01/10 00:47:53;;;;;;;8.95;8.05;;;17.30;52.80;;;;;;5108432;28;20729;-69
2024/01/10 00:50:19;;;;;;;9.50;8.20;;;17.20;52.70;;;;;;5093975;28;20188;-69
2024/01/10 00:52:45;;;;;;;8.57;7.68;;;17.20;52.70;;;;;;5077465;28;20195;-69
2024/01/10 00:55:12;;;;;;;8.68;7.78;;;17.20;52.70;;;;;;5107396;28;20217;-69
2024/01/10 00:57:38;;;;;;;8.63;7.82;;;17.20;52.70;;;;;;5099071;28;20235;-70
2024/01/10 01:00:10;;;;;;;9.02;8.13;;;17.20;52.70;;;;;;5073700;28;20187;-69
2024/01/10 01:02:39;;;;;;;9.05;8.15;;;17.20;52.70;;;;;;5073957;28;20192;-69
2024/01/10 01:05:09;;;;;;;9.93;7.95;;;17.20;52.70;;;;;;5076193;28;20208;-70
2024/01/10 01:07:35;;;;;;;9.88;8.68;;;17.20;52.70;;;;;;5104051;28;20264;-69
2024/01/10 01:10:02;;;;;;;8.30;7.50;;;17.20;52.70;;;;;;5090413;28;20238;-69
2024/01/10 01:12:28;;;;;;;8.68;7.78;;;17.20;52.70;;;;;;5090051;28;20191;-69
2024/01/10 01:14:54;;;;;;;8.90;7.80;;;17.20;52.70;;;;;;5090994;28;20224;-69
2024/01/10 01:17:20;;;;;;;8.77;7.90;;;17.20;52.70;;;;;;5073964;28;20243;-69
2024/01/10 01:19:45;;;;;;;8.70;7.75;;;17.30;52.80;;;;;;5074003;28;20184;-69
2024/01/10 01:22:11;;;;;;;9.10;8.20;;;17.20;52.70;;;;;;5092601;28;20187;-69
2024/01/10 01:24:37;;;;;;;10.00;8.05;;;17.20;52.60;;;;;;5096212;28;20207;-69
2024/01/10 01:27:03;;;;;;;9.18;8.10;;;17.20;52.60;;;;;;5081142;28;20188;-69
2024/01/10 01:29:29;;;;;;;8.70;7.80;;;17.20;52.60;;;;;;5095586;28;20701;-69
2024/01/10 01:31:55;;;;;;;9.43;8.50;;;17.20;52.70;;;;;;5100123;28;20188;-69
2024/01/10 01:34:21;;;;;;;8.75;7.68;;;17.20;52.60;;;;;;5090469;28;20655;-69
2024/01/10 01:36:47;;;;;;;8.98;8.07;;;17.20;52.70;;;;;;5081139;28;20277;-69
2024/01/10 01:39:15;;;;;;;9.65;8.65;;;17.20;52.60;;;;;;5093339;28;20191;-69
2024/01/10 01:41:41;;;;;;;10.60;9.00;;;17.20;52.60;;;;;;5092164;28;20188;-69
2024/01/10 01:44:07;;;;;;;9.90;8.90;;;17.20;52.60;;;;;;5097269;28;20201;-69
2024/01/10 01:46:33;;;;;;;8.63;7.70;;;17.20;52.60;;;;;;5077091;28;20192;-70
2024/01/10 01:49:00;;;;;;;9.65;8.50;;;17.20;52.60;;;;;;5080958;28;20200;-69
2024/01/10 01:51:28;;;;;;;8.98;8.10;;;17.20;52.60;;;;;;5097596;28;20208;-68
2024/01/10 01:53:55;;;;;;;8.25;7.45;;;17.20;52.60;;;;;;5098567;28;20311;-69
2024/01/10 01:56:21;;;;;;;9.43;8.13;;;17.20;52.60;;;;;;5101930;28;20254;-69
2024/01/10 01:58:50;;;;;;;9.02;8.13;;;17.20;52.60;;;;;;5084197;28;20221;-69
2024/01/10 02:01:20;;;;;;;9.30;8.15;;;17.20;52.60;;;;;;5092998;28;20180;-69
2024/01/10 02:03:45;;;;;;;8.88;7.97;;;17.30;52.60;;;;;;5093551;28;20253;-69
2024/01/10 02:06:12;;;;;;;9.10;8.20;;;17.30;52.60;;;;;;5088886;28;20194;-69
2024/01/10 02:08:37;;;;;;;9.07;7.80;;;17.20;52.60;;;;;;5120077;28;20256;-69
2024/01/10 02:11:04;;;;;;;8.20;7.40;;;17.30;52.60;;;;;;5087523;28;20715;-69
2024/01/10 02:13:32;;;;;;;8.23;7.43;;;17.30;52.60;;;;;;5072992;28;20213;-69
2024/01/10 02:15:59;;;;;;;8.75;7.90;;;17.20;52.60;;;;;;5073558;28;20212;-69
2024/01/10 02:18:25;;;;;;;8.75;7.85;;;17.30;52.70;;;;;;5086669;28;20185;-69
2024/01/10 02:20:52;;;;;;;7.88;7.13;;;17.20;52.60;;;;;;5089819;28;20311;-69
2024/01/10 02:23:18;;;;;;;9.00;8.10;;;17.30;52.70;;;;;;5106345;28;20177;-69
2024/01/10 02:25:44;;;;;;;9.00;8.10;;;17.20;52.60;;;;;;5097805;28;20199;-69
2024/01/10 02:28:10;;;;;;;8.23;7.43;;;17.20;52.60;;;;;;5075227;28;20215;-69
2024/01/10 02:30:37;;;;;;;8.40;7.60;;;17.30;52.70;;;;;;5105894;28;20180;-69
2024/01/10 02:33:03;;;;;;;8.07;7.28;;;17.20;52.60;;;;;;5083868;28;20185;-68
2024/01/10 02:35:30;;;;;;;8.32;7.45;;;17.20;52.60;;;;;;5089376;28;20324;-69
2024/01/10 02:37:56;;;;;;;8.55;7.68;;;17.20;52.60;;;;;;5079195;28;20189;-69
2024/01/10 02:40:22;;;;;;;8.30;7.45;;;17.30;52.60;;;;;;5095859;28;20185;-69
2024/01/10 02:42:48;;;;;;;8.20;7.40;;;17.20;52.60;;;;;;5099867;28;20195;-70
2024/01/10 02:45:13;;;;;;;8.13;7.40;;;17.20;52.60;;;;;;5100930;28;20217;-69
2024/01/10 02:47:39;;;;;;;8.65;7.80;;;17.20;52.50;;;;;;5110004;28;20219;-70
2024/01/10 02:50:06;;;;;;;8.27;7.47;;;17.30;52.60;;;;;;5081728;28;20189;-69
2024/01/10 02:52:32;;;;;;;8.75;7.85;;;17.30;52.60;;;;;;5098423;28;20180;-69
2024/01/10 02:54:57;;;;;;;8.80;7.90;;;17.30;52.50;;;;;;5091115;28;20268;-69
2024/01/10 02:57:23;;;;;;;7.93;7.13;;;17.20;52.50;;;;;;5107952;28;20187;-69
2024/01/10 02:59:49;;;;;;;7.72;6.93;;;17.30;52.60;;;;;;5099415;28;20180;-68
2024/01/10 03:02:15;;;;;;;8.27;7.47;;;17.30;52.50;;;;;;5103306;28;20188;-68
2024/01/10 03:04:42;;;;;;;8.25;7.40;;;17.30;52.60;;;;;;5103910;28;20201;-69
2024/01/10 03:07:08;;;;;;;7.65;6.85;;;17.30;52.90;;;;;;5101460;28;20188;-69
2024/01/10 03:09:33;;;;;;;7.43;6.72;;;17.30;52.60;;;;;;5109247;28;20313;-69
2024/01/10 03:11:59;;;;;;;7.70;6.95;;;17.30;52.60;;;;;;5090236;28;20184;-68
2024/01/10 03:14:25;;;;;;;7.78;6.97;;;17.30;52.60;;;;;;5095295;28;20230;-69
2024/01/10 03:16:51;;;;;;;8.57;7.60;;;17.20;52.50;;;;;;5082191;28;20567;-68
2024/01/10 03:19:16;;;;;;;7.45;6.75;;;17.30;52.60;;;;;;5108592;28;20184;-69
2024/01/10 03:21:42;;;;;;;7.50;6.80;;;17.30;52.50;;;;;;5108897;28;20184;-69
2024/01/10 03:24:08;;;;;;;8.02;7.22;;;17.30;52.60;;;;;;5123580;27;20252;-69
2024/01/10 03:26:34;;;;;;;8.02;6.70;;;17.30;52.60;;;;;;5108437;28;20704;-69
2024/01/10 03:29:00;;;;;;;8.25;7.45;;;17.30;52.50;;;;;;5106561;28;20206;-69
2024/01/10 03:31:28;;;;;;;8.00;7.20;;;17.20;52.60;;;;;;5089153;28;20177;-69
2024/01/10 03:33:54;;;;;;;7.95;6.90;;;17.20;52.40;;;;;;5094317;28;20216;-68
2024/01/10 03:36:20;;;;;;;8.77;7.68;;;17.30;52.60;;;;;;5082719;28;20213;-69
2024/01/10 03:38:46;;;;;;;7.70;7.00;;;17.30;52.50;;;;;;5078818;28;20231;-69
2024/01/10 03:41:19;;;;;;;7.95;7.15;;;17.30;52.60;;;;;;5071820;28;20649;-69
2024/01/10 03:43:45;;;;;;;8.23;7.45;;;17.20;52.40;;;;;;5101535;28;20204;-69
2024/01/10 03:46:12;;;;;;;7.47;6.57;;;17.30;52.50;;;;;;5089753;28;20224;-69
2024/01/10 03:48:47;;;;;;;7.85;6.50;;;17.30;52.50;;;;;;5102839;28;20194;-69
2024/01/10 03:51:21;;;;;;;8.20;7.40;;;17.30;52.50;;;;;;5106572;28;20275;-69
2024/01/10 03:53:49;;;;;;;7.43;6.50;;;17.30;52.50;;;;;;5091411;28;20232;-69
2024/01/10 03:56:15;;;;;;;7.63;6.70;;;17.30;52.50;;;;;;5091686;28;20236;-69
2024/01/10 03:58:41;;;;;;;7.72;6.93;;;17.30;52.60;;;;;;5072677;28;20329;-69
2024/01/10 04:01:08;;;;;;;7.22;6.53;;;17.30;52.50;;;;;;5091824;28;20569;-69
2024/01/10 04:03:35;;;;;;;7.60;6.80;;;17.30;52.50;;;;;;5088949;28;20223;-69
2024/01/10 04:06:02;;;;;;;7.95;6.95;;;17.30;52.60;;;;;;5073315;28;20197;-69
2024/01/10 04:08:28;;;;;;;7.45;6.65;;;17.30;52.50;;;;;;5074368;28;20248;-69
2024/01/10 04:10:54;;;;;;;7.63;6.80;;;17.30;52.40;;;;;;5091654;28;20189;-70
2024/01/10 04:13:20;;;;;;;7.82;7.03;;;17.30;52.50;;;;;;5106607;28;20206;-69
2024/01/10 04:15:46;;;;;;;7.57;6.68;;;17.30;52.50;;;;;;5071080;28;20259;-69
2024/01/10 04:18:12;;;;;;;7.85;7.00;;;17.30;52.60;;;;;;5088685;28;20275;-69
2024/01/10 04:20:37;;;;;;;7.88;7.07;;;17.30;52.60;;;;;;5074799;28;20181;-69
2024/01/10 04:23:03;;;;;;;8.02;6.57;;;17.30;52.50;;;;;;5074275;28;20185;-69
2024/01/10 04:25:29;;;;;;;8.20;7.22;;;17.30;52.40;;;;;;5089500;28;20243;-69
2024/01/10 04:27:55;;;;;;;8.85;7.13;;;17.30;52.50;;;;;;5074209;28;20185;-69
2024/01/10 04:30:21;;;;;;;7.47;6.75;;;17.30;52.50;;;;;;5074364;28;20176;-69
2024/01/10 04:32:47;;;;;;;7.57;6.72;;;17.30;52.40;;;;;;5071231;28;20193;-69
2024/01/10 04:35:13;;;;;;;7.68;6.88;;;17.30;52.50;;;;;;5092069;28;20215;-69
2024/01/10 04:37:38;;;;;;;7.22;6.47;;;17.30;52.40;;;;;;5092020;28;20196;-69
2024/01/10 04:40:05;;;;;;;8.10;6.88;;;17.30;52.40;;;;;;5103901;28;20184;-67
2024/01/10 04:42:31;;;;;;;7.72;6.93;;;17.30;52.40;;;;;;5077213;28;20178;-69
2024/01/10 04:44:57;;;;;;;7.00;6.30;;;17.30;52.40;;;;;;5103355;28;20211;-70
2024/01/10 04:47:23;;;;;;;6.90;6.20;;;17.30;52.40;;;;;;5087661;28;20192;-69
2024/01/10 04:49:48;;;;;;;7.45;6.75;;;17.30;52.40;;;;;;5095385;28;20239;-69
2024/01/10 04:52:14;;;;;;;7.82;7.10;;;17.30;52.40;;;;;;5090537;28;20246;-69
2024/01/10 04:54:40;;;;;;;6.63;6.03;;;17.30;52.50;;;;;;5094878;28;20249;-69
2024/01/10 04:57:05;;;;;;;7.03;6.32;;;17.30;52.50;;;;;;5076846;28;20184;-69
2024/01/10 04:59:31;;;;;;;6.90;6.20;;;17.30;52.40;;;;;;5081001;28;20558;-69
2024/01/10 05:01:57;;;;;;;7.40;6.70;;;17.30;52.50;;;;;;5087087;28;20719;-69
2024/01/10 05:04:23;;;;;;;7.38;6.55;;;17.30;52.50;;;;;;5095138;28;20217;-70
2024/01/10 05:06:49;;;;;;;7.25;6.55;;;17.30;52.50;;;;;;5112419;27;20192;-69
2024/01/10 05:09:14;;;;;;;6.95;6.25;;;17.40;52.60;;;;;;5095505;28;20185;-69
2024/01/10 05:11:40;;;;;;;7.65;6.60;;;17.30;52.50;;;;;;5096318;28;20564;-69
2024/01/10 05:14:06;;;;;;;7.55;6.70;;;17.30;52.40;;;;;;5090205;28;20289;-70
2024/01/10 05:16:32;;;;;;;7.10;5.95;;;17.30;52.40;;;;;;5076495;28;20223;-68
2024/01/10 05:19:02;;;;;;;7.63;6.50;;;17.30;52.50;;;;;;5092635;28;20249;-69
2024/01/10 05:21:30;;;;;;;7.05;6.35;;;17.30;52.40;;;;;;5098722;28;20181;-69
2024/01/10 05:23:56;;;;;;;7.70;6.82;;;17.30;52.50;;;;;;5073549;28;20227;-69
2024/01/10 05:26:22;;;;;;;7.13;6.43;;;17.30;52.50;;;;;;5090330;28;20185;-69
2024/01/10 05:28:47;;;;;;;8.20;6.75;;;17.30;52.40;;;;;;5088160;28;20191;-69
2024/01/10 05:31:13;;;;;;;7.43;6.72;;;17.30;52.40;;;;;;5090300;28;20193;-69
2024/01/10 05:33:39;;;;;;;7.55;6.57;;;17.30;52.40;;;;;;5081843;28;20209;-69
2024/01/10 05:36:05;;;;;;;6.95;6.25;;;17.30;52.40;;;;;;5098834;28;20237;-68
2024/01/10 05:38:31;;;;;;;7.00;6.30;;;17.30;52.40;;;;;;5104331;28;20176;-67
2024/01/10 05:40:56;;;;;;;8.27;7.00;;;17.30;52.40;;;;;;5094752;28;20184;-68
2024/01/10 05:43:22;;;;;;;7.80;7.03;;;17.30;52.40;;;;;;5091076;28;20180;-69
2024/01/10 05:45:48;;;;;;;7.75;6.95;;;17.30;52.40;;;;;;5101852;28;20195;-69
2024/01/10 05:48:13;;;;;;;7.10;6.30;;;17.30;52.40;;;;;;5090290;28;20193;-69
2024/01/10 05:50:39;;;;;;;6.88;6.22;;;17.30;52.40;;;;;;5090699;28;20192;-67
2024/01/10 05:53:05;;;;;;;8.07;7.28;;;17.30;52.40;;;;;;5088495;28;20642;-69
2024/01/10 05:55:31;;;;;;;7.03;6.32;;;17.30;52.50;;;;;;5077962;28;20216;-69
2024/01/10 05:57:57;;;;;;;6.93;6.22;;;17.30;52.40;;;;;;5100755;28;20192;-69
2024/01/10 06:00:22;;;;;;;7.97;7.18;;;17.30;52.40;;;;;;5100258;28;20203;-69
2024/01/10 06:02:48;;;;;;;7.70;6.72;;;17.30;52.50;;;;;;5082605;28;20221;-70
2024/01/10 06:05:14;;;;;;;7.70;6.90;;;17.30;52.50;;;;;;5102720;28;20269;-70
2024/01/10 06:07:41;;;;;;;7.53;6.72;;;17.20;52.40;;;;;;5115037;27;20264;-70
2024/01/10 06:10:07;;;;;;;7.47;6.78;;;17.30;52.50;;;;;;5093731;28;20197;-69
2024/01/10 06:12:33;;;;;;;9.27;6.90;;;17.20;52.60;;;;;;5091626;28;20216;-71
2024/01/10 06:14:59;;;;;;;8.15;6.93;;;17.30;52.80;;;;;;5099382;28;20216;-69
2024/01/10 06:17:24;;;;;;;7.70;6.90;;;17.30;53.00;;;;;;5088146;28;20660;-69
2024/01/10 06:19:51;;;;;;;8.82;6.82;;;17.30;53.00;;;;;;5093762;28;20185;-69
2024/01/10 06:22:17;;;;;;;7.47;6.72;;;17.30;53.00;;;;;;5076890;28;20182;-69
2024/01/10 06:24:44;;;;;;;8.13;7.15;;;17.30;52.80;;;;;;5079854;28;20218;-69
2024/01/10 06:27:10;;;;;;;7.75;6.32;;;17.30;52.90;;;;;;5094268;28;20193;-69
2024/01/10 06:29:36;;;;;;;8.32;7.40;;;17.30;52.90;;;;;;5081404;28;20287;-69
2024/01/10 06:32:06;;;;;;;7.55;6.78;;;17.30;52.70;;;;;;5084125;28;20185;-69
2024/01/10 06:34:32;;;;;;;7.22;6.53;;;17.30;52.80;;;;;;5098398;28;20283;-69
2024/01/10 06:36:58;;;;;;;8.68;6.80;;;17.30;52.70;;;;;;5093932;28;20209;-70
2024/01/10 06:39:24;;;;;;;7.97;6.53;;;17.30;52.70;;;;;;5094126;28;20280;-69
2024/01/10 06:41:50;;;;;;;8.15;7.35;;;17.30;52.60;;;;;;5096942;28;20189;-70
2024/01/10 06:44:19;;;;;;;7.28;6.57;;;17.30;52.60;;;;;;5073888;28;20198;-69
2024/01/10 06:46:45;;;;;;;8.35;7.53;;;17.30;52.60;;;;;;5096177;28;20196;-70
2024/01/10 06:49:12;;;;;;;7.32;6.63;;;17.20;52.50;;;;;;5076278;28;20189;-69
2024/01/10 06:51:38;;;;;;;7.85;7.05;;;17.30;52.60;;;;;;5096321;28;20193;-69
2024/01/10 06:54:04;;;;;;;7.63;6.82;;;17.30;52.60;;;;;;5097339;28;20272;-69
2024/01/10 06:56:34;;;;;;;8.05;7.25;;;17.30;52.50;;;;;;5089087;28;20213;-70
2024/01/10 06:59:00;;;;;;;8.85;7.25;;;17.30;52.40;;;;;;5104730;28;20188;-69
2024/01/10 07:01:27;;;;;;;7.20;6.50;;;17.30;52.40;;;;;;5089692;28;20265;-71
2024/01/10 07:03:57;;;;;;;8.25;7.35;;;17.30;52.30;;;;;;5099472;28;20295;-69
2024/01/10 07:06:23;;;;;;;8.15;7.35;;;17.30;52.30;;;;;;5106306;28;20199;-70
2024/01/10 07:08:50;;;;;;;7.85;7.10;;;17.30;52.30;;;;;;5097329;28;20196;-70
2024/01/10 07:11:17;;;;;;;8.90;7.82;;;17.30;52.30;;;;;;5079005;28;20200;-69
2024/01/10 07:13:43;;;;;;;7.78;6.97;;;17.30;52.30;;;;;;5100634;28;20243;-70
2024/01/10 07:16:09;;;;;;;7.90;7.10;;;17.30;52.30;;;;;;5092642;28;20281;-69
2024/01/10 07:18:35;;;;;;;8.10;7.30;;;17.30;52.30;;;;;;5106473;28;20210;-69
2024/01/10 07:21:01;;;;;;;8.32;7.47;;;17.30;52.30;;;;;;5078861;28;20191;-69
2024/01/10 07:23:27;;;;;;;7.43;6.72;;;17.30;52.30;;;;;;5109042;28;20181;-69
2024/01/10 07:25:53;;;;;;;8.40;7.35;;;17.30;52.30;;;;;;5104078;28;20241;-70
2024/01/10 07:28:20;;;;;;;7.75;7.05;;;17.30;52.30;;;;;;5082856;28;20219;-69
2024/01/10 07:30:46;;;;;;;8.05;6.90;;;17.30;52.20;;;;;;5075645;28;20275;-69
2024/01/10 07:33:12;;;;;;;8.10;7.28;;;17.40;52.40;;;;;;5094895;28;20192;-69
2024/01/10 07:35:39;;;;;;;7.80;7.00;;;17.30;52.30;;;;;;5094812;28;20745;-69
2024/01/10 07:38:07;;;;;;;7.65;6.80;;;17.30;52.30;;;;;;5118490;27;20318;-69
2024/01/10 07:40:33;;;;;;;8.05;6.93;;;17.30;52.30;;;;;;5096840;28;20185;-69
2024/01/10 07:42:59;;;;;;;7.57;6.78;;;17.30;52.30;;;;;;5098180;28;20241;-69
2024/01/10 07:45:26;;;;;;;7.60;6.80;;;17.30;52.30;;;;;;5092313;28;20217;-69
2024/01/10 07:47:52;;;;;;;8.30;7.47;;;17.30;52.30;;;;;;5075066;28;20191;-69
2024/01/10 07:50:19;;;;;;;7.78;7.00;;;17.30;52.30;;;;;;5088425;28;20236;-69
2024/01/10 07:52:48;;;;;;;8.32;7.47;;;17.30;52.20;;;;;;5096176;28;20193;-69
2024/01/10 07:55:14;;;;;;;8.05;7.25;;;17.30;52.30;;;;;;5097216;28;20231;-70
2024/01/10 07:57:42;;;;;;;7.50;6.80;;;17.30;52.30;;;;;;5090820;28;20185;-69
2024/01/10 08:00:12;;;;;;;7.55;6.75;;;17.30;52.30;;;;;;5092462;28;20192;-69
2024/01/10 08:02:38;;;;;;;8.25;7.45;;;17.30;52.30;;;;;;5092540;28;20185;-69
2024/01/10 08:05:10;;;;;;;8.02;7.25;;;17.30;52.80;;;;;;5082458;28;20208;-69
2024/01/10 08:07:37;;;;;;;8.10;7.30;;;17.30;52.60;;;;;;5100331;28;20272;-69
2024/01/10 08:10:11;;;;;;;8.38;7.25;;;17.30;52.30;;;;;;5074776;28;20216;-69
2024/01/10 08:12:44;;;;;;;8.48;7.53;;;17.30;52.30;;;;;;5093990;28;20678;-69
2024/01/10 08:15:10;;;;;;;8.50;7.40;;;17.30;52.20;;;;;;5094774;28;20250;-69
2024/01/10 08:17:39;;;;;;;8.73;7.10;;;17.30;52.30;;;;;;5094684;28;20189;-70
2024/01/10 08:20:08;;;;;;;7.95;7.15;;;17.30;52.20;;;;;;5092247;28;20173;-69
2024/01/10 08:22:33;;;;;;;7.72;6.93;;;17.30;52.20;;;;;;5092734;28;20714;-70
2024/01/10 08:24:59;;;;;;;8.32;7.22;;;17.30;52.20;;;;;;5080161;28;20211;-69
2024/01/10 08:27:25;;;;;;;7.43;6.60;;;17.30;52.20;;;;;;5095988;28;20228;-69
2024/01/10 08:29:51;;;;;;;7.60;6.90;;;17.30;52.20;;;;;;5088650;28;20197;-69
2024/01/10 08:32:18;;;;;;;7.57;6.80;;;17.30;52.30;;;;;;5107687;28;20628;-69
2024/01/10 08:34:44;;;;;;;7.45;6.68;;;17.30;52.20;;;;;;5077721;28;20201;-69
2024/01/10 08:37:10;;;;;;;8.52;7.40;;;17.30;52.20;;;;;;5099575;28;20224;-70
2024/01/10 08:39:36;;;;;;;8.15;7.07;;;17.30;52.30;;;;;;5073344;28;20185;-70
2024/01/10 08:42:02;;;;;;;7.55;6.72;;;17.30;52.30;;;;;;5094164;28;20188;-68
2024/01/10 08:44:28;;;;;;;8.80;7.50;;;17.30;52.20;;;;;;5089158;28;20224;-68
2024/01/10 08:46:54;;;;;;;7.93;7.13;;;17.30;52.20;;;;;;5090695;28;20185;-70
2024/01/10 08:49:20;;;;;;;8.05;6.82;;;17.30;52.20;;;;;;5107815;28;20199;-69
2024/01/10 08:51:49;;;;;;;7.93;6.80;;;17.30;52.20;;;;;;5105915;28;20283;-68
2024/01/10 08:54:19;;;;;;;8.07;7.15;;;17.30;52.20;;;;;;5075366;28;20213;-69
2024/01/10 08:56:46;;;;;;;8.23;7.43;;;17.30;52.20;;;;;;5092727;28;20291;-69
2024/01/10 08:59:12;;;;;;;8.52;7.63;;;17.30;52.20;;;;;;5092467;28;20181;-69
2024/01/10 09:01:41;;;;;;;8.38;7.53;;;17.30;52.20;;;;;;5113161;27;20197;-69
2024/01/10 09:04:07;;;;;;;7.97;7.18;;;17.30;52.10;;;;;;5075279;28;20277;-69
2024/01/10 09:06:34;;;;;;;7.35;6.65;;;17.40;52.20;;;;;;5094228;28;20184;-69
2024/01/10 09:09:01;;;;;;;7.55;6.78;;;17.30;52.00;;;;;;5092234;28;20567;-69
2024/01/10 09:11:26;;;;;;;8.60;7.80;;;17.40;52.20;;;;;;5090741;28;20185;-69
2024/01/10 09:13:52;;;;;;;8.15;7.35;;;17.40;52.10;;;;;;5108572;28;20213;-69
2024/01/10 09:16:18;;;;;;;7.95;7.15;;;17.40;52.10;;;;;;5077166;28;20690;-69
2024/01/10 09:18:44;;;;;;;7.47;6.78;;;17.40;52.10;;;;;;5100710;28;20180;-69
2024/01/10 09:21:10;;;;;;;7.57;6.88;;;17.40;52.10;;;;;;5090366;28;20616;-70
2024/01/10 09:23:36;;;;;;;7.75;6.93;;;17.40;52.10;;;;;;5095926;28;20208;-72
2024/01/10 09:26:02;;;;;;;8.65;7.75;;;17.40;52.10;;;;;;5093070;28;20177;-69
2024/01/10 09:28:28;;;;;;;8.35;7.45;;;17.40;52.10;;;;;;5076458;28;20186;-69
2024/01/10 09:30:54;;;;;;;7.80;7.07;;;17.40;52.10;;;;;;5074660;28;20185;-69
2024/01/10 09:33:22;;;;;;;8.00;7.20;;;17.40;52.10;;;;;;5087303;28;20199;-70
2024/01/10 09:35:48;;;;;;;8.18;7.38;;;17.40;52.10;;;;;;5106145;28;20208;-70
2024/01/10 09:38:14;;;;;;;7.63;6.93;;;17.40;52.00;;;;;;5088330;28;20188;-69
2024/01/10 09:40:40;;;;;;;8.98;6.82;;;17.40;52.10;;;;;;5098305;28;20192;-69
2024/01/10 09:43:07;;;;;;;8.13;7.32;;;17.40;52.10;;;;;;5113163;27;20189;-72
2024/01/10 09:45:36;;;;;;;7.88;6.90;;;17.40;52.00;;;;;;5098114;28;20588;-69
2024/01/10 09:48:04;;;;;;;7.85;7.15;;;17.40;52.10;;;;;;5096500;28;20595;-69
2024/01/10 09:50:29;;;;;;;8.73;7.82;;;17.40;52.10;;;;;;5111285;28;20199;-69
2024/01/10 09:53:09;;;;;;;7.97;7.18;;;17.50;52.10;;;;;;5093940;28;20195;-69
2024/01/10 09:55:37;;;;;;;7.70;6.90;;;17.50;52.10;;;;;;5096566;28;20204;-69
2024/01/10 09:58:08;;;;;;;7.68;6.88;;;17.40;52.00;;;;;;5096100;28;20227;-70
2024/01/10 10:00:36;;;;;;;7.88;7.07;;;17.50;52.10;;;;;;5096232;28;20188;-70
2024/01/10 10:03:04;;;;;;;8.43;7.35;;;17.50;52.10;;;;;;5103223;28;20173;-70
2024/01/10 10:05:31;;;;;;;7.47;6.68;;;17.50;52.10;;;;;;5097107;28;20216;-69
2024/01/10 10:07:58;;;;;;;7.88;7.18;;;17.50;52.10;;;;;;5092639;28;20200;-70
2024/01/10 10:10:24;;;;;;;7.82;7.05;;;17.50;52.10;;;;;;5095669;28;20189;-69
2024/01/10 10:12:52;;;;;;;8.90;7.97;;;17.50;52.20;;;;;;5076113;28;20235;-69
2024/01/10 10:15:23;;;;;;;7.90;7.10;;;17.50;52.10;;;;;;5089480;28;20218;-69
2024/01/10 10:17:53;;;;;;;8.10;7.30;;;17.50;52.10;;;;;;5093179;28;20184;-69
2024/01/10 10:20:29;;;;;;;8.98;7.85;;;17.50;52.10;;;;;;5108055;27;20191;-69
2024/01/10 10:23:17;;;;;;;8.07;7.38;;;17.50;52.00;;;;;;5076242;28;20192;-69
2024/01/10 10:25:44;;;;;;;9.32;8.30;;;17.50;52.10;;;;;;5096618;28;20212;-69
2024/01/10 10:28:10;;;;;;;7.93;7.13;;;17.50;52.10;;;;;;5093499;28;20215;-70
2024/01/10 10:30:35;;;;;;;7.70;6.90;;;17.50;52.10;;;;;;5093780;28;20197;-70
2024/01/10 10:33:03;;;;;;;7.70;7.00;;;17.50;52.10;;;;;;5085993;28;20299;-70
2024/01/10 10:35:29;;;;;;;8.25;7.45;;;17.50;52.10;;;;;;5102255;28;20265;-70
2024/01/10 10:37:55;;;;;;;7.75;6.97;;;17.50;52.10;;;;;;5092333;28;20185;-70
2024/01/10 10:40:21;;;;;;;7.57;6.88;;;17.50;52.10;;;;;;5092267;28;20185;-70
2024/01/10 10:42:56;;;;;;;8.38;7.43;;;17.50;52.10;;;;;;5093199;28;20181;-70
2024/01/10 10:45:26;;;;;;;7.72;6.82;;;17.50;52.10;;;;;;5101448;28;20211;-70
2024/01/10 10:48:01;;;;;;;7.60;6.85;;;17.50;52.10;;;;;;5102559;28;20250;-70
2024/01/10 10:50:33;;;;;;;8.63;7.60;;;17.50;52.20;;;;;;5093376;28;20203;-69
2024/01/10 10:53:03;;;;;;;7.82;7.03;;;17.50;52.10;;;;;;5076446;28;20236;-70
2024/01/10 10:55:29;;;;;;;8.73;7.47;;;17.50;52.20;;;;;;5094176;28;20766;-70
2024/01/10 10:57:57;;;;;;;8.20;7.32;;;17.60;52.20;;;;;;5094742;28;20212;-70
2024/01/10 11:00:27;;;;;;;8.00;7.25;;;17.50;52.10;;;;;;5109806;28;20189;-69
2024/01/10 11:02:54;;;;;;;8.07;7.30;;;17.50;52.10;;;;;;5086643;28;20184;-69
2024/01/10 11:05:21;;;;;;;8.02;7.32;;;17.50;52.20;;;;;;5075900;28;20296;-70
2024/01/10 11:07:48;;;;;;;8.35;7.47;;;17.50;52.20;;;;;;5092515;28;20189;-70
2024/01/10 11:10:27;;;;;;;7.85;7.15;;;17.50;52.10;;;;;;5090746;28;20276;-69
2024/01/10 11:13:13;;;;;;;7.25;6.57;;;17.50;52.20;;;;;;5091410;28;20274;-69
2024/01/10 11:16:16;;;;;;;7.80;7.00;;;17.50;52.10;;;;;;5093946;28;20211;-69
2024/01/10 11:19:38;;;;;;;8.15;7.35;;;17.60;52.20;;;;;;5109888;28;20185;-69
2024/01/10 11:22:55;;;;;;;7.68;6.97;;;17.60;52.30;;;;;;5109551;28;20637;-69
2024/01/10 11:25:20;;;;;;;7.72;6.93;;;17.60;52.30;;;;;;5081821;28;20285;-69
2024/01/10 11:27:52;;;;;;;7.07;6.38;;;17.60;52.20;;;;;;5092331;28;20648;-69
2024/01/10 11:30:40;;;;;;;8.18;7.38;;;17.60;52.20;;;;;;5096819;28;20188;-69
2024/01/10 11:33:30;;;;;;;7.78;6.97;;;17.50;52.20;;;;;;5112082;28;20184;-69
2024/01/10 11:36:19;;;;;;;7.03;6.32;;;17.50;52.20;;;;;;5102541;28;20217;-69
2024/01/10 11:38:59;;;;;;;7.03;6.40;;;17.60;52.20;;;;;;5083110;28;20184;-69
2024/01/10 11:41:38;;;;;;;7.57;6.88;;;17.60;52.20;;;;;;5108233;28;20181;-68
2024/01/10 11:44:18;;;;;;;7.30;6.60;;;17.60;52.40;;;;;;5102319;28;20219;-68
2024/01/10 11:46:49;;;;;;;7.57;6.47;;;17.60;52.40;;;;;;5098420;28;20397;-69
2024/01/10 11:49:20;;;;;;;6.88;6.28;;;17.60;52.30;;;;;;5100053;28;20260;-68
2024/01/10 11:51:48;;;;;;;6.95;6.30;;;17.60;52.40;;;;;;5099979;28;20185;-68
2024/01/10 11:54:41;;;;;;;6.75;6.05;;;17.60;52.40;;;;;;5103188;28;20188;-68
2024/01/10 11:57:18;;;;;;;6.53;5.93;;;17.60;52.30;;;;;;5101413;28;20233;-69
2024/01/10 11:59:45;;;;;;;7.00;6.30;;;17.60;52.40;;;;;;5082594;28;20258;-68
2024/01/10 12:02:13;;;;;;;6.35;5.75;;;17.60;52.40;;;;;;5102397;28;20207;-68
2024/01/10 12:04:39;;;;;;;6.50;5.90;;;17.60;52.50;;;;;;5102685;28;20209;-67
2024/01/10 12:07:07;;;;;;;7.35;6.57;;;17.60;52.50;;;;;;5107757;28;20218;-67
2024/01/10 12:09:36;;;;;;;6.80;6.10;;;17.60;52.50;;;;;;5105306;28;20213;-68
2024/01/10 12:12:03;;;;;;;6.90;6.25;;;17.60;52.50;;;;;;5091601;28;20180;-68
2024/01/10 12:14:30;;;;;;;6.28;5.68;;;17.60;52.50;;;;;;5102560;28;20627;-68
2024/01/10 12:16:57;;;;;;;6.20;5.60;;;17.60;52.50;;;;;;5093558;28;20219;-68
2024/01/10 12:19:23;;;;;;;6.47;5.88;;;17.60;52.50;;;;;;5103695;28;20188;-68
2024/01/10 12:21:49;;;;;;;6.80;6.20;;;17.60;52.50;;;;;;5094612;28;20188;-69
2024/01/10 12:24:15;;;;;;;6.30;5.70;;;17.60;52.50;;;;;;5099617;28;20197;-69
2024/01/10 12:26:45;;;;;;;6.50;5.90;;;17.60;52.50;;;;;;5088922;28;20188;-68
2024/01/10 12:29:12;;;;;;;6.13;5.55;;;17.60;52.50;;;;;;5098264;28;20215;-68
2024/01/10 12:31:42;;;;;;;6.35;5.75;;;17.70;52.70;;;;;;5100001;28;20185;-68
2024/01/10 12:34:09;;;;;;;6.72;6.10;;;17.70;52.60;;;;;;5099582;28;20691;-68
2024/01/10 12:36:35;;;;;;;6.00;5.47;;;17.60;52.60;;;;;;5098439;28;20211;-68
2024/01/10 12:39:01;;;;;;;6.38;5.78;;;17.60;52.70;;;;;;5100866;28;20243;-70
2024/01/10 12:41:27;;;;;;;6.28;5.78;;;17.70;52.70;;;;;;5119487;27;20234;-70
2024/01/10 12:43:56;;;;;;;5.93;5.32;;;17.70;52.70;;;;;;5091694;28;20201;-68
2024/01/10 12:46:25;;;;;;;6.03;5.43;;;17.70;52.70;;;;;;5073818;28;20189;-68
2024/01/10 12:49:02;;;;;;;5.80;5.30;;;17.70;53.40;;;;;;5087383;28;20188;-70
2024/01/10 12:51:30;;;;;;;6.05;5.45;;;17.70;52.80;;;;;;5067971;28;20234;-66